createdAt,value
2017-09-10T12:26:05.185Z,270
2017-09-10T12:27:05.885Z,240
2017-09-10T12:28:05.254Z,225
2017-09-10T12:29:05.212Z,230
2017-09-10T12:30:05.536Z,235
2017-09-10T12:31:05.868Z,235
2017-09-10T12:32:05.174Z,235
2017-09-10T12:33:05.178Z,225
2017-09-10T12:34:05.214Z,220
2017-09-10T12:35:05.493Z,240
2017-09-10T12:36:05.181Z,260
2017-09-10T12:37:05.815Z,280
2017-09-10T12:38:05.491Z,290
2017-09-10T12:39:05.829Z,280
2017-09-10T12:40:05.155Z,295
2017-09-10T12:41:05.498Z,295
2017-09-10T12:42:05.807Z,300
2017-09-10T12:43:05.158Z,290
2017-09-10T12:44:05.496Z,285
2017-09-10T12:45:05.501Z,280
2017-09-10T12:46:05.801Z,285
2017-09-10T12:47:05.137Z,295
2017-09-10T12:48:05.483Z,310
2017-09-10T12:49:05.470Z,335
2017-09-10T12:50:05.476Z,340
2017-09-10T12:51:05.475Z,355
2017-09-10T12:52:05.789Z,375
2017-09-10T12:53:05.150Z,375
2017-09-10T12:54:05.166Z,380
2017-09-10T12:55:05.800Z,365
2017-09-10T12:56:05.338Z,350
2017-09-10T12:57:05.787Z,345
2017-09-10T12:58:05.792Z,335
2017-09-10T12:59:06.103Z,330
2017-09-10T13:00:05.466Z,320
2017-09-10T13:01:05.438Z,315
2017-09-10T13:02:05.109Z,295
2017-09-10T13:03:05.779Z,290
2017-09-10T13:04:05.437Z,290
2017-09-10T13:05:05.449Z,285
2017-09-10T13:06:06.100Z,275
2017-09-10T13:07:05.155Z,270
2017-09-10T13:08:05.763Z,270
2017-09-10T13:09:05.103Z,250
2017-09-10T13:10:05.758Z,230
2017-09-10T13:11:05.096Z,240
2017-09-10T13:12:05.098Z,265
2017-09-10T13:13:05.108Z,285
2017-09-10T13:14:05.421Z,300
2017-09-10T13:15:05.741Z,310
2017-09-10T13:16:05.411Z,315
2017-09-10T13:17:05.407Z,320
2017-09-10T13:18:05.426Z,325
2017-09-10T13:19:05.733Z,325
2017-09-10T13:20:05.430Z,325
2017-09-10T13:21:05.518Z,330
2017-09-10T13:22:05.071Z,320
2017-09-10T13:23:05.396Z,320
2017-09-10T13:24:05.394Z,325
2017-09-10T13:25:05.402Z,335
2017-09-10T13:26:05.390Z,340
2017-09-10T13:27:05.735Z,350
2017-09-10T13:28:05.079Z,350
2017-09-10T13:29:05.396Z,340
2017-09-10T13:30:05.404Z,320
2017-09-10T13:31:05.711Z,315
2017-09-10T13:32:05.422Z,305
2017-09-10T13:33:05.380Z,305
2017-09-10T13:34:05.047Z,315
2017-09-10T13:35:05.372Z,315
2017-09-10T13:36:05.404Z,315
2017-09-10T13:37:06.266Z,310
2017-09-10T13:38:06.036Z,305
2017-09-10T13:39:05.366Z,300
2017-09-10T13:40:05.363Z,290
2017-09-10T13:41:05.689Z,300
2017-09-10T13:42:05.380Z,300
2017-09-10T13:43:05.377Z,315
2017-09-10T13:44:05.028Z,340
2017-09-10T13:45:05.692Z,345
2017-09-10T13:46:06.010Z,350
2017-09-10T13:47:05.047Z,355
2017-09-10T13:48:05.344Z,355
2017-09-10T13:49:05.347Z,355
2017-09-10T13:50:05.999Z,355
2017-09-10T13:51:06.002Z,335
2017-09-10T13:52:10.372Z,345
2017-09-10T13:53:05.341Z,340
2017-09-10T13:54:06.016Z,345
2017-09-10T13:55:05.998Z,345
2017-09-10T13:56:05.663Z,345
2017-09-10T13:57:05.668Z,345
2017-09-10T13:58:05.325Z,345
2017-09-10T13:59:05.678Z,345
2017-09-10T14:00:05.334Z,335
2017-09-10T14:01:05.323Z,335
2017-09-10T14:02:05.008Z,325
2017-09-10T14:03:05.029Z,335
2017-09-10T14:04:04.992Z,325
2017-09-10T14:05:05.310Z,325
2017-09-10T14:06:05.309Z,320
2017-09-10T14:07:04.998Z,310
2017-09-10T14:08:05.979Z,290
2017-09-10T14:09:05.304Z,285
2017-09-10T14:10:05.298Z,280
2017-09-10T14:11:05.295Z,275
2017-09-10T14:12:04.966Z,280
2017-09-10T14:13:06.276Z,285
2017-09-10T14:14:04.963Z,290
2017-09-10T14:15:04.962Z,295
2017-09-10T14:16:04.958Z,295
2017-09-10T14:17:05.608Z,295
2017-09-10T14:18:04.972Z,295
2017-09-10T14:19:05.280Z,285
2017-09-10T14:20:05.290Z,270
2017-09-10T14:21:05.020Z,240
2017-09-10T14:22:05.641Z,230
2017-09-10T14:23:06.253Z,220
2017-09-10T14:24:04.938Z,210
2017-09-10T14:25:05.630Z,205
2017-09-10T14:26:04.958Z,200
2017-09-10T14:27:05.276Z,190
2017-09-10T14:28:05.268Z,175
2017-09-10T14:29:05.255Z,170
2017-09-10T14:30:04.923Z,160
2017-09-10T14:31:05.250Z,150
2017-09-10T14:32:05.257Z,140
2017-09-10T14:33:05.254Z,140
2017-09-10T14:34:04.983Z,140
2017-09-10T14:35:04.915Z,140
2017-09-10T14:36:05.243Z,145
2017-09-10T14:37:05.561Z,140
2017-09-10T14:38:05.238Z,145
2017-09-10T14:39:05.562Z,140
2017-09-10T14:40:04.896Z,135
2017-09-10T14:41:05.550Z,130
2017-09-10T14:42:04.890Z,130
2017-09-10T14:43:05.550Z,140
2017-09-10T14:44:06.199Z,140
2017-09-10T14:45:05.209Z,140
2017-09-10T14:46:05.239Z,140
2017-09-10T14:47:05.198Z,135
2017-09-10T14:48:05.531Z,135
2017-09-10T14:49:05.522Z,135
2017-09-10T14:50:05.192Z,130
2017-09-10T14:51:05.191Z,135
2017-09-10T14:52:04.856Z,140
2017-09-10T14:53:05.881Z,140
2017-09-10T14:54:05.196Z,135
2017-09-10T14:55:05.509Z,135
2017-09-10T14:56:04.870Z,135
2017-09-10T14:57:05.843Z,135
2017-09-10T14:58:04.852Z,135
2017-09-10T14:59:05.169Z,130
2017-09-10T15:00:05.809Z,125
2017-09-10T15:01:05.837Z,120
2017-09-10T15:02:05.150Z,120
2017-09-10T15:03:05.144Z,120
2017-09-10T15:04:04.840Z,120
2017-09-10T15:05:05.797Z,115
2017-09-10T15:06:04.809Z,115
2017-09-10T15:07:04.845Z,110
2017-09-10T15:08:04.803Z,110
2017-09-10T15:09:05.136Z,110
2017-09-10T15:10:05.453Z,110
2017-09-10T15:11:05.460Z,110
2017-09-10T15:12:04.807Z,110
2017-09-10T15:13:05.450Z,110
2017-09-10T15:14:05.145Z,110
2017-09-10T15:15:04.782Z,110
2017-09-10T15:16:05.803Z,110
2017-09-10T15:17:05.106Z,110
2017-09-10T15:18:05.769Z,105
2017-09-10T15:19:05.093Z,105
2017-09-10T15:20:05.086Z,105
2017-09-10T15:21:04.757Z,100
2017-09-10T15:22:05.420Z,100
2017-09-10T15:23:05.080Z,100
2017-09-10T15:24:05.439Z,100
2017-09-10T15:25:05.735Z,100
2017-09-10T15:26:05.075Z,100
2017-09-10T15:27:05.072Z,100
2017-09-10T15:28:05.726Z,100
2017-09-10T15:29:05.070Z,95
2017-09-10T15:30:05.053Z,100
2017-09-10T15:31:05.051Z,100
2017-09-10T15:32:05.384Z,100
2017-09-10T15:33:05.372Z,100
2017-09-10T15:34:04.735Z,100
2017-09-10T15:35:04.705Z,95
2017-09-10T15:36:05.359Z,100
2017-09-10T15:37:05.027Z,100
2017-09-10T15:38:04.697Z,100
2017-09-10T15:39:05.693Z,100
2017-09-10T15:40:04.697Z,100
2017-09-10T15:41:05.378Z,100
2017-09-10T15:42:05.332Z,110
2017-09-10T15:43:05.007Z,130
2017-09-10T15:44:04.670Z,140
2017-09-10T15:45:04.667Z,145
2017-09-10T15:46:05.014Z,140
2017-09-10T15:47:04.678Z,120
2017-09-10T15:48:04.653Z,105
2017-09-10T15:49:04.985Z,100
2017-09-10T15:50:04.983Z,100
2017-09-10T15:51:04.974Z,100
2017-09-10T15:52:05.296Z,95
2017-09-10T15:53:05.004Z,95
2017-09-10T15:54:04.631Z,95
2017-09-10T15:55:05.277Z,90
2017-09-10T15:56:04.949Z,85
2017-09-10T15:57:05.275Z,85
2017-09-10T15:58:04.652Z,90
2017-09-10T15:59:04.936Z,90
2017-09-10T16:00:04.937Z,90
2017-09-10T16:01:04.930Z,85
2017-09-10T16:02:04.941Z,80
2017-09-10T16:03:05.297Z,85
2017-09-10T16:04:04.592Z,80
2017-09-10T16:05:04.591Z,85
2017-09-10T16:06:04.928Z,85
2017-09-10T16:07:04.936Z,80
2017-09-10T16:08:04.902Z,75
2017-09-10T16:09:04.903Z,75
2017-09-10T16:10:05.221Z,75
2017-09-10T16:11:04.888Z,80
2017-09-10T16:12:04.904Z,80
2017-09-10T16:13:04.876Z,80
2017-09-10T16:14:05.216Z,75
2017-09-10T16:15:05.202Z,80
2017-09-10T16:16:04.863Z,80
2017-09-10T16:17:05.188Z,80
2017-09-10T16:18:04.861Z,80
2017-09-10T16:19:04.522Z,80
2017-09-10T16:20:05.502Z,80
2017-09-10T16:21:04.513Z,80
2017-09-10T16:22:04.514Z,80
2017-09-10T16:23:05.488Z,80
2017-09-10T16:24:05.156Z,80
2017-09-10T16:25:04.826Z,75
2017-09-10T16:26:04.821Z,75
2017-09-10T16:27:04.823Z,75
2017-09-10T16:28:05.494Z,65
2017-09-10T16:29:05.145Z,65
2017-09-10T16:30:04.468Z,65
2017-09-10T16:31:04.793Z,65
2017-09-10T16:32:05.114Z,65
2017-09-10T16:33:04.787Z,65
2017-09-10T16:34:05.446Z,70
2017-09-10T16:35:04.781Z,65
2017-09-10T16:36:04.768Z,60
2017-09-10T16:37:04.438Z,60
2017-09-10T16:38:04.770Z,65
2017-09-10T16:39:04.758Z,60
2017-09-10T16:40:05.090Z,65
2017-09-10T16:41:04.752Z,65
2017-09-10T16:42:04.736Z,60
2017-09-10T16:43:05.070Z,60
2017-09-10T16:44:04.735Z,55
2017-09-10T16:45:04.394Z,55
2017-09-10T16:46:04.748Z,50
2017-09-10T16:47:04.381Z,50
2017-09-10T16:48:05.373Z,50
2017-09-10T16:49:04.708Z,55
2017-09-10T16:50:05.029Z,55
2017-09-10T16:51:05.386Z,50
2017-09-10T16:52:04.698Z,50
2017-09-10T16:53:04.694Z,45
2017-09-10T16:54:04.674Z,45
2017-09-10T16:55:05.003Z,45
2017-09-10T16:56:05.000Z,45
2017-09-10T16:57:05.338Z,40
2017-09-10T16:58:04.651Z,40
2017-09-10T16:59:04.648Z,40
2017-09-10T17:00:04.314Z,40
2017-09-10T17:01:04.991Z,45
2017-09-10T17:02:04.626Z,40
2017-09-10T17:03:04.319Z,40
2017-09-10T17:04:04.948Z,40
2017-09-10T17:05:04.648Z,40
2017-09-10T17:06:04.295Z,40
2017-09-10T17:07:05.317Z,35
2017-09-10T17:08:04.594Z,35
2017-09-10T17:09:04.594Z,35
2017-09-10T17:10:04.586Z,35
2017-09-10T17:11:04.633Z,30
2017-09-10T17:12:05.230Z,30
2017-09-10T17:13:04.895Z,30
2017-09-10T17:14:05.219Z,30
2017-09-10T17:15:05.241Z,30
2017-09-10T17:16:04.549Z,25
2017-09-10T17:17:04.572Z,25
2017-09-10T17:18:04.252Z,25
2017-09-10T17:19:04.860Z,25
2017-09-10T17:20:04.921Z,20
2017-09-10T17:21:04.189Z,20
2017-09-10T17:22:04.862Z,20
2017-09-10T17:23:04.838Z,20
2017-09-10T17:24:04.856Z,15
2017-09-10T17:25:04.170Z,15
2017-09-10T17:26:04.837Z,15
2017-09-10T17:27:05.163Z,15
2017-09-10T17:28:05.133Z,10
2017-09-10T17:29:04.162Z,10
2017-09-10T17:30:04.465Z,10
2017-09-10T17:31:04.482Z,10
2017-09-10T17:32:04.145Z,10
2017-09-10T17:33:05.167Z,5
2017-09-10T17:34:04.805Z,5
2017-09-10T17:35:04.433Z,5
2017-09-10T17:36:04.424Z,5
2017-09-10T17:37:05.082Z,5
2017-09-10T17:38:04.417Z,5
2017-09-10T17:39:04.786Z,5
2017-09-10T17:40:04.402Z,0
2017-09-10T17:41:04.719Z,0
2017-09-10T17:42:05.044Z,0
2017-09-10T17:43:04.397Z,0
2017-09-10T17:44:04.056Z,0
2017-09-10T17:45:04.378Z,0
2017-09-10T17:46:04.694Z,0
2017-09-10T17:47:05.027Z,0
2017-09-10T17:48:04.350Z,0
2017-09-10T17:49:04.362Z,0
2017-09-10T17:50:04.009Z,0
2017-09-10T17:51:04.327Z,0
2017-09-10T17:52:04.994Z,0
2017-09-10T17:53:04.325Z,0
2017-09-10T17:54:04.309Z,0
2017-09-10T17:55:04.653Z,0
2017-09-10T17:56:04.653Z,0
2017-09-10T17:57:04.628Z,0
2017-09-10T17:58:03.953Z,0
2017-09-10T17:59:04.283Z,0
2017-09-10T18:00:04.971Z,0
2017-09-10T18:01:04.265Z,0
2017-09-10T18:02:04.281Z,0
2017-09-10T18:03:04.903Z,0
2017-09-10T18:04:04.265Z,0
2017-09-10T18:05:04.569Z,0
2017-09-10T18:06:04.240Z,0
2017-09-10T18:07:04.225Z,0
2017-09-10T18:08:04.205Z,0
2017-09-10T18:09:04.218Z,0
2017-09-10T18:10:03.891Z,0
2017-09-10T18:11:04.194Z,0
2017-09-10T18:12:04.179Z,0
2017-09-10T18:13:04.185Z,0
2017-09-10T18:14:04.165Z,0
2017-09-10T18:15:04.211Z,0
2017-09-10T18:16:04.198Z,0
2017-09-10T18:17:04.797Z,0
2017-09-10T18:18:04.150Z,0
2017-09-10T18:19:04.660Z,0
2017-09-10T18:20:04.449Z,0
2017-09-10T18:21:04.452Z,0
2017-09-10T18:22:04.102Z,0
2017-09-10T18:23:04.447Z,0
2017-09-10T18:24:04.093Z,0
2017-09-10T18:25:04.776Z,0
2017-09-10T18:26:04.125Z,0
2017-09-10T18:27:04.731Z,0
2017-09-10T18:28:04.418Z,0
2017-09-10T18:29:04.050Z,0
2017-09-10T18:30:04.721Z,0
2017-09-10T18:31:03.752Z,0
2017-09-10T18:32:03.700Z,0
2017-09-10T18:33:04.033Z,0
2017-09-10T18:34:04.015Z,0
2017-09-10T18:35:04.335Z,0
2017-09-10T18:36:04.672Z,0
2017-09-10T18:37:03.984Z,0
2017-09-10T18:38:03.984Z,0
2017-09-10T18:39:04.296Z,0
2017-09-10T18:40:04.293Z,0
2017-09-10T18:41:04.628Z,0
2017-09-10T18:42:06.799Z,0
2017-09-10T18:43:03.949Z,0
2017-09-10T18:44:03.952Z,0
2017-09-10T18:45:04.252Z,0
2017-09-10T18:46:04.589Z,0
2017-09-10T18:47:03.596Z,0
2017-09-10T18:48:04.556Z,0
2017-09-10T18:49:04.256Z,0
2017-09-10T18:50:03.892Z,0
2017-09-10T18:51:04.209Z,0
2017-09-10T18:52:03.560Z,0
2017-09-10T18:53:04.197Z,0
2017-09-10T18:54:04.055Z,0
2017-09-10T18:55:03.841Z,0
2017-09-10T18:56:03.852Z,0
2017-09-10T18:57:04.484Z,0
2017-09-10T18:58:03.830Z,0
2017-09-10T18:59:03.826Z,0
2017-09-10T19:00:04.158Z,0
2017-09-10T19:01:04.121Z,0
2017-09-10T19:02:03.822Z,0
2017-09-10T19:03:03.448Z,0
2017-09-10T19:04:03.438Z,0
2017-09-10T19:05:03.781Z,0
2017-09-10T19:06:03.752Z,0
2017-09-10T19:07:03.758Z,0
2017-09-10T19:08:03.746Z,0
2017-09-10T19:09:04.055Z,0
2017-09-10T19:10:03.420Z,0
2017-09-10T19:11:03.715Z,0
2017-09-10T19:12:04.042Z,0
2017-09-10T19:13:03.370Z,0
2017-09-10T19:14:04.024Z,0
2017-09-10T19:15:03.435Z,0
2017-09-10T19:16:03.670Z,0
2017-09-10T19:17:03.676Z,0
2017-09-10T19:18:03.322Z,0
2017-09-10T19:19:03.642Z,0
2017-09-10T19:20:03.646Z,0
2017-09-10T19:21:04.312Z,0
2017-09-10T19:22:04.308Z,0
2017-09-10T19:23:03.308Z,0
2017-09-10T19:24:03.305Z,0
2017-09-10T19:25:03.280Z,0
2017-09-10T19:26:03.619Z,0
2017-09-10T19:27:03.283Z,0
2017-09-10T19:28:03.916Z,0
2017-09-10T19:29:03.920Z,0
2017-09-10T19:30:03.904Z,0
2017-09-10T19:31:03.562Z,0
2017-09-10T19:32:03.554Z,0
2017-09-10T19:33:03.877Z,0
2017-09-10T19:34:03.528Z,0
2017-09-10T19:35:03.513Z,0
2017-09-10T19:36:04.184Z,0
2017-09-10T19:37:03.872Z,0
2017-09-10T19:38:04.145Z,0
2017-09-10T19:39:03.841Z,0
2017-09-10T19:40:03.496Z,0
2017-09-10T19:41:03.813Z,0
2017-09-10T19:42:04.470Z,0
2017-09-10T19:43:03.466Z,0
2017-09-10T19:44:03.443Z,0
2017-09-10T19:45:03.773Z,0
2017-09-10T19:46:03.091Z,0
2017-09-10T19:47:03.759Z,0
2017-09-10T19:48:03.738Z,0
2017-09-10T19:49:03.455Z,0
2017-09-10T19:50:03.090Z,0
2017-09-10T19:51:03.045Z,0
2017-09-10T19:52:03.364Z,0
2017-09-10T19:53:03.720Z,0
2017-09-10T19:54:03.681Z,0
2017-09-10T19:55:03.398Z,0
2017-09-10T19:56:03.349Z,0
2017-09-10T19:57:03.344Z,0
2017-09-10T19:58:03.659Z,0
2017-09-10T19:59:03.379Z,0
2017-09-10T20:00:03.633Z,0
2017-09-10T20:01:04.241Z,0
2017-09-10T20:02:03.611Z,0
2017-09-10T20:03:03.598Z,0
2017-09-10T20:04:03.279Z,0
2017-09-10T20:05:02.923Z,0
2017-09-10T20:06:03.283Z,0
2017-09-10T20:07:03.576Z,0
2017-09-10T20:08:03.228Z,0
2017-09-10T20:09:03.873Z,0
2017-09-10T20:10:03.209Z,0
2017-09-10T20:11:03.540Z,0
2017-09-10T20:12:02.873Z,0
2017-09-10T20:13:03.201Z,0
2017-09-10T20:14:03.527Z,0
2017-09-10T20:15:03.167Z,0
2017-09-10T20:16:03.150Z,0
2017-09-10T20:17:03.153Z,0
2017-09-10T20:18:03.171Z,0
2017-09-10T20:19:02.804Z,0
2017-09-10T20:20:03.808Z,0
2017-09-10T20:21:03.115Z,0
2017-09-10T20:22:03.190Z,0
2017-09-10T20:23:03.775Z,0
2017-09-10T20:24:03.409Z,0
2017-09-10T20:25:03.430Z,0
2017-09-10T20:26:02.737Z,0
2017-09-10T20:27:03.110Z,0
2017-09-10T20:28:03.055Z,0
2017-09-10T20:29:03.699Z,0
2017-09-10T20:30:03.358Z,0
2017-09-10T20:31:03.683Z,0
2017-09-10T20:32:02.727Z,0
2017-09-10T20:33:03.338Z,0
2017-09-10T20:34:03.381Z,0
2017-09-10T20:35:02.659Z,0
2017-09-10T20:36:02.651Z,0
2017-09-10T20:37:03.297Z,0
2017-09-10T20:38:03.617Z,0
2017-09-10T20:39:02.943Z,0
2017-09-10T20:40:03.714Z,0
2017-09-10T20:41:02.938Z,0
2017-09-10T20:42:02.916Z,0
2017-09-10T20:43:02.583Z,0
2017-09-10T20:44:03.246Z,0
2017-09-10T20:45:03.566Z,0
2017-09-10T20:46:02.919Z,0
2017-09-10T20:47:03.210Z,0
2017-09-10T20:48:02.871Z,0
2017-09-10T20:49:02.576Z,0
2017-09-10T20:50:02.865Z,0
2017-09-10T20:51:02.836Z,0
2017-09-10T20:52:02.830Z,0
2017-09-10T20:53:03.150Z,0
2017-09-10T20:54:02.821Z,0
2017-09-10T20:55:03.476Z,0
2017-09-10T20:56:03.119Z,0
2017-09-10T20:57:03.135Z,0
2017-09-10T20:58:02.793Z,0
2017-09-10T20:59:02.455Z,0
2017-09-10T21:00:06.732Z,0
2017-09-10T21:01:02.763Z,0
2017-09-10T21:02:03.103Z,0
2017-09-10T21:03:02.533Z,0
2017-09-10T21:04:02.733Z,0
2017-09-10T21:05:03.044Z,0
2017-09-10T21:06:02.703Z,0
2017-09-10T21:07:02.692Z,0
2017-09-10T21:08:03.036Z,0
2017-09-10T21:09:02.674Z,0
2017-09-10T21:10:03.014Z,0
2017-09-10T21:11:02.672Z,0
2017-09-10T21:12:03.016Z,0
2017-09-10T21:13:03.331Z,0
2017-09-10T21:14:02.629Z,0
2017-09-10T21:15:02.954Z,0
2017-09-10T21:16:02.304Z,0
2017-09-10T21:17:02.954Z,0
2017-09-10T21:18:02.949Z,0
2017-09-10T21:19:02.920Z,0
2017-09-10T21:20:03.001Z,0
2017-09-10T21:21:02.887Z,0
2017-09-10T21:22:02.555Z,0
2017-09-10T21:23:02.569Z,0
2017-09-10T21:24:02.939Z,0
2017-09-10T21:25:02.853Z,0
2017-09-10T21:26:02.572Z,0
2017-09-10T21:27:02.847Z,0
2017-09-10T21:28:02.174Z,0
2017-09-10T21:29:03.149Z,0
2017-09-10T21:30:02.483Z,0
2017-09-10T21:31:02.471Z,0
2017-09-10T21:32:02.484Z,0
2017-09-10T21:33:02.784Z,0
2017-09-10T21:34:02.447Z,0
2017-09-10T21:35:02.436Z,0
2017-09-10T21:36:02.771Z,0
2017-09-10T21:37:02.105Z,0
2017-09-10T21:38:02.415Z,0
2017-09-10T21:39:02.736Z,0
2017-09-10T21:40:02.069Z,0
2017-09-10T21:41:02.070Z,0
2017-09-10T21:42:02.392Z,0
2017-09-10T21:43:03.378Z,0
2017-09-10T21:44:02.683Z,0
2017-09-10T21:45:02.371Z,0
2017-09-10T21:46:02.710Z,0
2017-09-10T21:47:02.713Z,0
2017-09-10T21:48:02.332Z,0
2017-09-10T21:49:02.323Z,0
2017-09-10T21:50:02.302Z,0
2017-09-10T21:51:02.637Z,0
2017-09-10T21:52:02.647Z,0
2017-09-10T21:53:02.603Z,0
2017-09-10T21:54:02.255Z,0
2017-09-10T21:55:01.946Z,0
2017-09-10T21:56:02.948Z,0
2017-09-10T21:57:01.914Z,0
2017-09-10T21:58:01.927Z,0
2017-09-10T21:59:02.241Z,0
2017-09-10T22:00:01.890Z,0
2017-09-10T22:01:02.530Z,0
2017-09-10T22:02:02.867Z,0
2017-09-10T22:03:01.855Z,0
2017-09-10T22:04:01.844Z,0
2017-09-10T22:05:02.493Z,0
2017-09-10T22:06:02.157Z,0
2017-09-10T22:07:02.814Z,0
2017-09-10T22:08:02.146Z,0
2017-09-10T22:09:01.796Z,0
2017-09-10T22:10:02.467Z,0
2017-09-10T22:11:02.761Z,0
2017-09-10T22:12:01.781Z,0
2017-09-10T22:13:02.426Z,0
2017-09-10T22:14:01.750Z,0
2017-09-10T22:15:02.089Z,0
2017-09-10T22:16:01.748Z,0
2017-09-10T22:17:01.735Z,0
2017-09-10T22:18:02.395Z,0
2017-09-10T22:19:02.033Z,0
2017-09-10T22:20:02.374Z,0
2017-09-10T22:21:02.702Z,0
2017-09-10T22:22:02.722Z,0
2017-09-10T22:23:01.992Z,0
2017-09-10T22:24:01.986Z,0
2017-09-10T22:25:02.328Z,0
2017-09-10T22:26:01.985Z,0
2017-09-10T22:27:02.312Z,0
2017-09-10T22:28:01.617Z,0
2017-09-10T22:29:02.312Z,0
2017-09-10T22:30:01.941Z,0
2017-09-10T22:31:01.606Z,0
2017-09-10T22:32:01.931Z,0
2017-09-10T22:33:01.942Z,0
2017-09-10T22:34:02.551Z,0
2017-09-10T22:35:01.559Z,0
2017-09-10T22:36:01.905Z,0
2017-09-10T22:37:01.870Z,0
2017-09-10T22:38:02.211Z,0
2017-09-10T22:39:02.174Z,0
2017-09-10T22:40:02.182Z,0
2017-09-10T22:41:02.188Z,0
2017-09-10T22:42:01.826Z,0
2017-09-10T22:43:01.806Z,0
2017-09-10T22:44:02.144Z,0
2017-09-10T22:45:02.477Z,0
2017-09-10T22:46:02.113Z,0
2017-09-10T22:47:01.446Z,0
2017-09-10T22:48:01.436Z,0
2017-09-10T22:49:01.430Z,0
2017-09-10T22:50:01.773Z,0
2017-09-10T22:51:02.397Z,0
2017-09-10T22:52:01.770Z,0
2017-09-10T22:53:02.039Z,0
2017-09-10T22:54:02.068Z,0
2017-09-10T22:55:01.699Z,0
2017-09-10T22:56:01.381Z,0
2017-09-10T22:57:02.042Z,0
2017-09-10T22:58:01.370Z,0
2017-09-10T22:59:01.675Z,0
2017-09-10T23:00:02.001Z,0
2017-09-10T23:01:01.991Z,0
2017-09-10T23:02:01.979Z,0
2017-09-10T23:03:01.668Z,0
2017-09-10T23:04:01.963Z,0
2017-09-10T23:05:02.208Z,0
2017-09-10T23:06:01.617Z,0
2017-09-10T23:07:01.594Z,0
2017-09-10T23:08:01.912Z,0
2017-09-10T23:09:01.908Z,0
2017-09-10T23:10:01.232Z,0
2017-09-10T23:11:01.897Z,0
2017-09-10T23:12:01.540Z,0
2017-09-10T23:13:01.860Z,0
2017-09-10T23:14:01.211Z,0
2017-09-10T23:15:01.515Z,0
2017-09-10T23:16:01.502Z,0
2017-09-10T23:17:01.497Z,0
2017-09-10T23:18:01.174Z,0
2017-09-10T23:19:01.844Z,0
2017-09-10T23:20:01.823Z,0
2017-09-10T23:21:01.799Z,0
2017-09-10T23:22:01.463Z,0
2017-09-10T23:23:01.438Z,0
2017-09-10T23:24:01.100Z,0
2017-09-10T23:25:01.089Z,0
2017-09-10T23:26:01.427Z,0
2017-09-10T23:27:01.083Z,0
2017-09-10T23:28:01.734Z,0
2017-09-10T23:29:01.067Z,0
2017-09-10T23:30:01.399Z,0
2017-09-10T23:31:01.364Z,0
2017-09-10T23:32:01.352Z,0
2017-09-10T23:33:01.687Z,0
2017-09-10T23:34:01.041Z,0
2017-09-10T23:35:01.689Z,0
2017-09-10T23:36:01.337Z,0
2017-09-10T23:37:00.985Z,0
2017-09-10T23:38:00.980Z,0
2017-09-10T23:39:01.504Z,0
2017-09-10T23:40:01.626Z,0
2017-09-10T23:41:01.267Z,0
2017-09-10T23:42:01.925Z,0
2017-09-10T23:43:01.274Z,0
2017-09-10T23:44:01.243Z,0
2017-09-10T23:45:00.943Z,0
2017-09-10T23:46:00.894Z,0
2017-09-10T23:47:00.902Z,0
2017-09-10T23:48:01.547Z,0
2017-09-10T23:49:01.541Z,0
2017-09-10T23:50:01.521Z,0
2017-09-10T23:51:01.529Z,0
2017-09-10T23:52:00.839Z,0
2017-09-10T23:53:01.190Z,0
2017-09-10T23:54:01.147Z,0
2017-09-10T23:55:00.848Z,0
2017-09-10T23:56:00.804Z,0
2017-09-10T23:57:01.128Z,0
2017-09-10T23:58:01.124Z,0
2017-09-10T23:59:01.760Z,0
